Time;durP1;ratioP1;P1;durP2;ratioP2;P2;SDS_P1;SDS_P2;PMS_P1;PMS_P2;Temp;Humidity;BMP_temperature;BMP_pressure;BME280_temperature;BME280_humidity;BME280_pressure;Samples;Min_cycle;Max_cycle;Signal;HPM_P1;HPM_P2
2022/07/04 00:01:04;;;;;;;5.53;1.77;;;;;;;21.79;57.46;94206.09;5047853;28;20244;-64
2022/07/04 00:03:49;;;;;;;5.23;1.67;;;;;;;21.82;57.63;94203.31;5060033;28;20615;-64
2022/07/04 00:06:33;;;;;;;2.00;1.40;;;;;;;21.54;59.46;94205.94;5056033;28;20762;-64
2022/07/04 00:09:17;;;;;;;2.10;1.43;;;;;;;21.50;59.21;94194.38;5050006;28;20371;-64
2022/07/04 00:12:01;;;;;;;3.33;1.50;;;;;;;21.45;58.70;94207.03;5054304;28;20193;-64
2022/07/04 00:14:46;;;;;;;5.93;1.50;;;;;;;21.54;59.10;94208.78;5052886;28;20205;-64
2022/07/04 00:17:30;;;;;;;2.50;1.33;;;;;;;21.32;59.50;94206.59;5042697;28;20197;-64
2022/07/04 00:20:14;;;;;;;1.77;1.40;;;;;;;21.56;59.44;94197.44;5052408;28;20317;-64
2022/07/04 00:22:59;;;;;;;2.50;1.33;;;;;;;21.25;61.12;94195.63;5050429;28;20202;-64
2022/07/04 00:25:42;;;;;;;2.20;1.27;;;;;;;21.02;62.18;94185.53;5051909;28;20229;-64
2022/07/04 00:28:26;;;;;;;2.20;1.30;;;;;;;20.99;62.13;94175.44;5054366;28;20268;-64
2022/07/04 00:31:10;;;;;;;5.20;1.40;;;;;;;21.08;61.54;94182.16;5051259;28;20220;-64
2022/07/04 00:33:54;;;;;;;2.10;1.30;;;;;;;20.91;62.96;94186.56;5055693;28;20247;-64
2022/07/04 00:36:38;;;;;;;1.70;1.00;;;;;;;20.93;63.30;94192.31;5052102;28;20673;-64
2022/07/04 00:39:22;;;;;;;3.30;1.37;;;;;;;20.85;63.32;94192.03;5046186;28;20225;-64
2022/07/04 00:42:06;;;;;;;1.57;1.23;;;;;;;21.12;61.61;94199.41;5046439;28;20217;-64
2022/07/04 00:44:50;;;;;;;1.03;0.93;;;;;;;21.25;60.66;94204.91;5057208;28;20232;-64
2022/07/04 00:47:34;;;;;;;5.33;1.50;;;;;;;21.11;60.97;94209.38;5055236;28;20581;-64
2022/07/04 00:50:18;;;;;;;2.23;1.50;;;;;;;21.13;61.59;94218.69;5048540;28;20193;-64
2022/07/04 00:53:02;;;;;;;2.07;1.60;;;;;;;21.16;61.59;94223.13;5056556;28;20289;-64
2022/07/04 00:55:47;;;;;;;2.43;1.80;;;;;;;21.19;61.58;94227.50;5053845;28;20665;-64
2022/07/04 00:58:32;;;;;;;2.00;1.50;;;;;;;21.13;62.21;94218.69;5046082;28;20809;-64
2022/07/04 01:01:17;;;;;;;5.10;1.57;;;;;;;21.23;62.25;94213.38;5045931;28;20304;-64
2022/07/04 01:04:03;;;;;;;1.80;1.43;;;;;;;21.16;62.18;94205.31;5050241;28;20705;-64
2022/07/04 01:06:49;;;;;;;3.67;1.30;;;;;;;21.20;62.27;94191.91;5049778;28;20224;-64
2022/07/04 01:09:34;;;;;;;4.47;1.37;;;;;;;21.11;62.38;94192.28;5046772;28;20670;-64
2022/07/04 01:12:27;;;;;;;1.53;1.43;;;;;;;21.05;62.62;94195.59;5056120;28;20252;-64
2022/07/04 01:15:11;;;;;;;3.97;1.40;;;;;;;21.04;62.54;94205.56;5049337;28;20691;-63
2022/07/04 01:17:55;;;;;;;4.40;1.47;;;;;;;20.96;62.83;94199.56;5038214;28;20343;-63
2022/07/04 01:20:39;;;;;;;1.53;1.20;;;;;;;20.91;63.06;94181.59;5047498;28;20272;-64
2022/07/04 01:23:23;;;;;;;4.03;1.63;;;;;;;20.84;63.25;94187.72;5047641;28;20210;-64
2022/07/04 01:26:07;;;;;;;2.00;1.43;;;;;;;20.78;63.35;94173.25;5050441;28;20264;-63
2022/07/04 01:28:52;;;;;;;1.03;0.97;;;;;;;20.71;63.46;94180.09;5050455;28;20201;-63
2022/07/04 01:31:36;;;;;;;1.37;1.23;;;;;;;20.64;63.74;94178.41;5047489;28;20206;-63
2022/07/04 01:34:20;;;;;;;3.10;1.37;;;;;;;20.56;63.71;94175.97;5050363;28;20260;-63
2022/07/04 01:37:04;;;;;;;2.80;1.10;;;;;;;20.43;64.22;94169.09;5033250;28;20217;-63
2022/07/04 01:39:48;;;;;;;3.33;1.40;;;;;;;20.32;64.77;94157.94;5057372;28;20213;-63
2022/07/04 01:42:32;;;;;;;3.70;1.23;;;;;;;20.34;64.88;94160.91;5048755;28;20206;-63
2022/07/04 01:45:16;;;;;;;1.67;1.17;;;;;;;20.27;64.90;94157.06;5053179;28;20198;-63
2022/07/04 01:48:01;;;;;;;2.77;1.40;;;;;;;20.29;64.33;94142.91;5045441;28;20205;-64
2022/07/04 01:50:45;;;;;;;3.10;1.60;;;;;;;20.25;64.74;94125.66;5060344;28;20239;-63
2022/07/04 01:53:29;;;;;;;2.53;1.40;;;;;;;20.15;64.46;94111.06;5046412;28;20202;-63
2022/07/04 01:56:13;;;;;;;2.00;1.33;;;;;;;20.13;64.09;94103.16;5050723;28;20197;-63
2022/07/04 01:58:59;;;;;;;2.70;1.30;;;;;;;20.10;64.12;94110.19;5050048;28;20221;-63
2022/07/04 02:01:43;;;;;;;1.23;0.90;;;;;;;20.00;64.65;94089.13;5052130;28;20271;-63
2022/07/04 02:04:26;;;;;;;1.00;1.00;;;;;;;19.99;64.95;94087.69;5053901;28;20307;-63
2022/07/04 02:07:10;;;;;;;2.50;1.30;;;;;;;19.95;65.13;94088.25;5051349;28;20213;-63
2022/07/04 02:09:54;;;;;;;1.07;0.93;;;;;;;19.91;65.26;94093.78;5052870;28;20228;-63
2022/07/04 02:15:41;;;;;;;1.33;0.80;;;;;;;19.73;65.64;94096.63;5052774;28;20205;-63
2022/07/04 02:18:25;;;;;;;3.60;1.20;;;;;;;19.69;65.72;94085.09;5053254;28;20698;-63
2022/07/04 02:21:10;;;;;;;2.30;1.10;;;;;;;19.70;66.13;94097.94;5046333;28;20220;-63
2022/07/04 02:23:54;;;;;;;4.27;1.47;;;;;;;19.62;66.17;94099.72;5057007;28;20609;-63
2022/07/04 02:26:38;;;;;;;1.23;1.13;;;;;;;19.51;67.06;94109.94;5047898;28;20201;-63
2022/07/04 02:29:23;;;;;;;1.23;1.10;;;;;;;19.33;67.20;94107.03;5038411;28;20586;-63
2022/07/04 02:32:07;;;;;;;2.83;1.30;;;;;;;19.21;68.00;94105.81;5043778;28;20202;-63
2022/07/04 02:34:51;;;;;;;3.73;1.50;;;;;;;19.05;69.07;94113.66;5049456;28;20198;-63
2022/07/04 02:37:36;;;;;;;1.30;1.20;;;;;;;18.89;70.38;94117.25;5056912;28;20296;-63
2022/07/04 02:40:19;;;;;;;2.33;1.10;;;;;;;18.81;70.54;94128.28;5051943;28;20268;-63
2022/07/04 02:43:04;;;;;;;1.20;1.10;;;;;;;18.83;69.97;94128.34;5047478;28;20628;-63
2022/07/04 02:45:48;;;;;;;1.43;1.10;;;;;;;18.80;70.12;94126.81;5048982;28;20572;-63
2022/07/04 02:48:32;;;;;;;3.97;1.10;;;;;;;18.76;70.25;94125.91;5050401;28;20213;-64
2022/07/04 02:51:17;;;;;;;1.93;1.03;;;;;;;18.70;71.13;94129.19;5054757;28;20196;-63
2022/07/04 02:54:01;;;;;;;1.23;1.07;;;;;;;18.58;71.13;94123.69;5054309;28;20198;-64
2022/07/04 02:56:45;;;;;;;0.83;0.83;;;;;;;18.70;70.71;94123.50;5045204;28;20267;-63
2022/07/04 02:59:29;;;;;;;1.00;1.00;;;;;;;18.56;71.32;94123.63;5048962;28;20252;-64
2022/07/04 03:02:13;;;;;;;1.40;1.00;;;;;;;18.50;72.16;94116.91;5054430;28;20252;-63
2022/07/04 03:04:57;;;;;;;1.03;0.90;;;;;;;18.35;72.84;94109.84;5051188;28;20205;-63
2022/07/04 03:07:40;;;;;;;1.17;1.07;;;;;;;18.35;73.21;94118.38;5051940;28;20197;-63
2022/07/04 03:10:25;;;;;;;2.13;1.20;;;;;;;18.30;74.07;94116.00;5036098;28;20584;-64
2022/07/04 03:13:09;;;;;;;2.77;1.00;;;;;;;18.22;74.78;94115.59;5050301;28;20236;-64
2022/07/04 03:15:53;;;;;;;3.07;1.10;;;;;;;18.22;76.32;94121.28;5058317;28;20689;-63
2022/07/04 03:18:37;;;;;;;2.10;1.10;;;;;;;18.15;77.93;94128.78;5048510;28;20285;-63
2022/07/04 03:21:21;;;;;;;1.83;1.13;;;;;;;18.11;78.88;94134.28;5057359;28;20305;-63
2022/07/04 03:24:07;;;;;;;3.77;1.20;;;;;;;18.07;80.29;94146.16;5053904;28;20678;-63
2022/07/04 03:26:51;;;;;;;1.70;1.57;;;;;;;17.98;80.69;94144.31;5045079;28;20205;-63
2022/07/04 03:29:35;;;;;;;0.90;0.87;;;;;;;17.91;80.71;94142.56;5047911;28;20289;-63
2022/07/04 03:32:19;;;;;;;1.07;1.07;;;;;;;17.88;80.56;94141.00;5055066;28;20702;-63
2022/07/04 03:35:03;;;;;;;2.87;1.30;;;;;;;17.78;81.63;94138.41;5050477;28;20247;-64
2022/07/04 03:37:48;;;;;;;1.87;1.23;;;;;;;17.73;82.46;94147.34;5047344;28;20248;-63
2022/07/04 03:40:35;;;;;;;1.20;1.00;;;;;;;17.60;84.36;94139.59;5050067;28;20287;-64
2022/07/04 03:43:19;;;;;;;2.30;1.80;;;;;;;17.55;87.82;94149.28;5046037;28;20230;-64
2022/07/04 03:46:03;;;;;;;1.50;1.20;;;;;;;17.60;89.38;94159.44;5053258;28;20244;-64
2022/07/04 03:48:47;;;;;;;3.67;2.37;;;;;;;17.71;87.35;94161.44;5046626;28;20212;-64
2022/07/04 03:51:31;;;;;;;3.03;1.97;;;;;;;17.76;86.60;94163.09;5050577;28;20201;-64
2022/07/04 03:54:15;;;;;;;3.60;1.60;;;;;;;17.92;85.37;94172.38;5038141;28;20205;-64
2022/07/04 03:56:59;;;;;;;2.67;1.50;;;;;;;18.01;85.25;94177.06;5053056;28;20216;-64
2022/07/04 03:59:43;;;;;;;3.93;1.30;;;;;;;18.00;87.60;94186.22;5045609;28;20201;-63
2022/07/04 04:02:27;;;;;;;4.80;1.50;;;;;;;18.21;84.15;94182.94;5033071;28;20619;-64
2022/07/04 04:05:26;;;;;;;1.27;1.17;;;;;;;18.38;82.28;94190.13;5048463;28;20237;-64
2022/07/04 04:08:10;;;;;;;2.67;1.37;;;;;;;18.41;81.72;94195.25;5049711;28;20197;-64
2022/07/04 04:10:54;;;;;;;1.50;1.30;;;;;;;18.47;80.80;94189.84;5056467;28;20266;-64
2022/07/04 04:13:38;;;;;;;2.97;1.47;;;;;;;18.59;79.18;94192.53;5040961;28;20213;-64
2022/07/04 04:16:22;;;;;;;1.70;1.60;;;;;;;18.67;78.92;94201.44;5058075;28;20248;-64
2022/07/04 04:19:06;;;;;;;3.67;1.40;;;;;;;18.80;80.09;94200.63;5054639;28;20201;-64
2022/07/04 04:21:50;;;;;;;5.50;1.30;;;;;;;18.94;79.41;94197.69;5043562;28;20259;-65
2022/07/04 04:24:33;;;;;;;1.90;1.60;;;;;;;18.87;80.92;94199.53;5050277;28;20213;-64
2022/07/04 04:27:17;;;;;;;1.93;1.20;;;;;;;19.05;80.43;94202.44;5062766;28;20197;-64
2022/07/04 04:30:02;;;;;;;2.27;1.37;;;;;;;19.21;80.84;94208.09;5049059;28;20247;-64
2022/07/04 04:32:46;;;;;;;1.73;1.03;;;;;;;19.29;79.06;94209.19;5053654;28;20745;-64
2022/07/04 04:35:30;;;;;;;1.53;1.30;;;;;;;19.12;80.02;94220.47;5050609;28;20201;-64
2022/07/04 04:38:14;;;;;;;1.20;1.10;;;;;;;18.92;81.84;94229.56;5050866;28;20347;-64
2022/07/04 04:40:58;;;;;;;3.67;1.00;;;;;;;19.03;81.99;94239.25;5046464;28;20268;-64
2022/07/04 04:43:42;;;;;;;3.10;1.00;;;;;;;19.05;81.77;94256.41;5042887;28;20229;-65
2022/07/04 04:46:26;;;;;;;1.43;1.17;;;;;;;19.36;78.60;94264.91;5040808;28;20590;-64
2022/07/04 04:49:10;;;;;;;3.03;0.97;;;;;;;19.24;81.06;94277.84;5038669;28;20205;-63
2022/07/04 04:51:54;;;;;;;2.40;1.30;;;;;;;19.10;84.20;94282.88;5040328;28;20265;-63
2022/07/04 04:54:38;;;;;;;1.37;1.10;;;;;;;19.04;84.95;94291.84;5044018;28;20686;-64
2022/07/04 04:57:22;;;;;;;2.70;1.23;;;;;;;18.99;86.88;94295.88;5040984;28;20343;-63
2022/07/04 05:00:07;;;;;;;1.13;1.07;;;;;;;19.09;84.81;94315.50;5043922;28;20308;-63
2022/07/04 05:02:50;;;;;;;2.60;1.53;;;;;;;18.79;87.33;94321.22;5010752;28;20716;-64
2022/07/04 05:05:34;;;;;;;7.63;1.60;;;;;;;18.95;89.96;94318.41;5001848;28;20218;-63
2022/07/04 05:08:18;;;;;;;1.93;1.73;;;;;;;18.99;92.77;94319.34;5043095;28;20563;-64
2022/07/04 05:11:03;;;;;;;2.10;1.30;;;;;;;18.84;95.21;94313.63;5046670;28;20197;-61
2022/07/04 05:13:47;;;;;;;3.27;1.60;;;;;;;18.08;100.00;94317.75;5047947;28;20211;-61
2022/07/04 05:16:31;;;;;;;6.33;2.10;;;;;;;17.74;100.00;94318.88;5042437;28;20202;-69
2022/07/04 05:19:15;;;;;;;3.30;1.80;;;;;;;17.71;100.00;94320.16;5025900;28;20246;-71
2022/07/04 05:21:58;;;;;;;2.50;1.80;;;;;;;17.74;100.00;94324.56;5047289;28;20272;-67
2022/07/04 05:24:43;;;;;;;1.63;1.53;;;;;;;17.52;100.00;94329.06;5056333;28;20241;-68
2022/07/04 05:27:27;;;;;;;2.37;1.90;;;;;;;17.53;100.00;94333.38;5034352;28;20268;-67
2022/07/04 05:30:11;;;;;;;3.37;2.17;;;;;;;17.40;100.00;94338.38;5054208;28;20200;-62
2022/07/04 05:32:58;;;;;;;3.20;2.17;;;;;;;17.64;100.00;94338.22;5054334;28;20205;-61
2022/07/04 05:35:42;;;;;;;5.80;2.07;;;;;;;17.63;100.00;94331.06;5055914;28;20244;-60
2022/07/04 05:38:26;;;;;;;3.63;1.60;;;;;;;17.51;100.00;94347.41;5047943;28;20288;-61
2022/07/04 05:41:10;;;;;;;2.20;1.57;;;;;;;17.61;100.00;94345.13;5034033;28;20959;-61
2022/07/04 05:43:54;;;;;;;4.57;1.90;;;;;;;17.42;100.00;94351.19;5048794;28;20296;-62
2022/07/04 05:46:38;;;;;;;3.80;1.77;;;;;;;17.45;100.00;94349.94;5046727;28;20252;-62
2022/07/04 05:49:22;;;;;;;4.30;2.10;;;;;;;17.63;100.00;94359.41;5057163;28;20275;-62
2022/07/04 05:52:06;;;;;;;5.00;1.87;;;;;;;17.52;100.00;94360.97;5052588;28;20197;-62
2022/07/04 05:54:50;;;;;;;4.37;2.03;;;;;;;17.43;100.00;94363.97;5053619;28;20568;-62
2022/07/04 05:57:34;;;;;;;1.50;1.40;;;;;;;17.56;100.00;94360.44;5052113;28;20195;-62
2022/07/04 06:00:18;;;;;;;3.83;2.17;;;;;;;17.51;100.00;94358.75;5045348;28;20225;-61
2022/07/04 06:03:02;;;;;;;2.80;1.77;;;;;;;17.59;100.00;94359.19;5037585;28;20221;-62
2022/07/04 06:05:46;;;;;;;2.90;1.97;;;;;;;17.56;100.00;94366.09;5052711;28;20583;-63
2022/07/04 06:08:31;;;;;;;2.63;1.87;;;;;;;17.60;100.00;94369.13;5047555;28;20293;-70
2022/07/04 06:11:17;;;;;;;2.20;2.00;;;;;;;17.58;100.00;94366.22;5045703;28;20207;-69
2022/07/04 06:14:01;;;;;;;4.83;1.90;;;;;;;17.70;100.00;94352.69;5047460;28;20674;-69
2022/07/04 06:16:45;;;;;;;2.40;2.20;;;;;;;17.83;100.00;94354.78;5052008;28;20205;-70
2022/07/04 06:19:29;;;;;;;2.90;1.80;;;;;;;17.86;100.00;94362.03;5057010;28;20646;-63
2022/07/04 06:22:13;;;;;;;2.63;1.70;;;;;;;17.83;100.00;94365.41;5049900;28;20205;-62
2022/07/04 06:24:57;;;;;;;4.00;1.97;;;;;;;17.75;100.00;94360.03;5049843;28;20621;-62
2022/07/04 06:27:42;;;;;;;2.53;1.77;;;;;;;17.76;100.00;94361.50;5052818;28;20563;-62
2022/07/04 06:30:27;;;;;;;3.57;1.90;;;;;;;17.94;100.00;94362.44;5056493;28;20209;-61
2022/07/04 06:33:11;;;;;;;3.17;2.20;;;;;;;17.98;100.00;94365.47;5049187;28;20210;-62
2022/07/04 06:35:55;;;;;;;3.03;1.73;;;;;;;18.18;100.00;94366.50;5051828;28;20213;-62
2022/07/04 06:38:39;;;;;;;2.10;1.90;;;;;;;18.07;100.00;94347.53;5052805;28;20341;-71
2022/07/04 06:41:23;;;;;;;4.47;2.03;;;;;;;17.85;100.00;94357.72;5048509;28;20224;-69
2022/07/04 06:44:07;;;;;;;9.43;2.60;;;;;;;17.83;100.00;94349.13;5045223;28;20284;-69
2022/07/04 06:46:51;;;;;;;2.97;2.20;;;;;;;17.88;100.00;94344.38;5052644;28;20670;-71
2022/07/04 06:49:35;;;;;;;3.60;1.83;;;;;;;18.03;100.00;94343.72;5058883;28;20641;-70
2022/07/04 06:52:19;;;;;;;5.10;2.30;;;;;;;17.98;100.00;94342.06;5038805;28;20201;-69
2022/07/04 06:55:03;;;;;;;3.63;2.50;;;;;;;17.86;100.00;94362.03;5050220;28;20200;-68
2022/07/04 06:57:47;;;;;;;3.43;2.60;;;;;;;17.72;100.00;94370.53;5060127;28;20878;-71
2022/07/04 07:00:31;;;;;;;2.97;2.30;;;;;;;17.78;100.00;94387.09;5046200;28;20754;-70
2022/07/04 07:03:15;;;;;;;3.00;2.30;;;;;;;17.75;100.00;94385.56;5043121;28;20245;-69
2022/07/04 07:05:59;;;;;;;4.40;2.20;;;;;;;17.84;100.00;94398.06;5060005;28;20271;-74
2022/07/04 07:08:43;;;;;;;3.60;2.37;;;;;;;17.78;100.00;94398.44;5052575;28;20200;-69
2022/07/04 07:11:27;;;;;;;4.20;2.43;;;;;;;17.89;100.00;94403.31;5050808;28;20194;-62
2022/07/04 07:14:11;;;;;;;2.30;2.10;;;;;;;18.01;100.00;94403.94;5047577;28;20688;-69
2022/07/04 07:16:55;;;;;;;4.87;2.37;;;;;;;18.02;100.00;94411.03;5039128;28;20202;-67
2022/07/04 07:19:40;;;;;;;3.57;2.33;;;;;;;18.45;100.00;94393.34;5050250;28;20286;-67
2022/07/04 07:22:24;;;;;;;3.07;2.40;;;;;;;18.39;100.00;94378.88;5045215;28;20198;-67
2022/07/04 07:25:10;;;;;;;2.93;2.60;;;;;;;18.85;100.00;94372.63;5052637;28;20731;-64
2022/07/04 07:27:54;;;;;;;2.60;2.40;;;;;;;19.07;100.00;94375.06;5048006;28;20215;-63
2022/07/04 07:30:38;;;;;;;3.73;2.53;;;;;;;19.31;100.00;94361.97;5029598;28;20256;-62
2022/07/04 07:33:21;;;;;;;3.50;2.40;;;;;;;19.70;100.00;94375.84;5050581;28;20197;-63
2022/07/04 07:36:05;;;;;;;2.07;1.97;;;;;;;20.25;100.00;94369.66;5059105;28;20289;-63
2022/07/04 07:38:49;;;;;;;3.60;1.93;;;;;;;20.51;100.00;94373.66;5051607;28;20197;-63
2022/07/04 07:41:34;;;;;;;2.90;1.63;;;;;;;20.75;100.00;94362.50;5053134;28;20254;-62
2022/07/04 07:44:18;;;;;;;3.92;1.33;;;;;;;21.00;100.00;94354.28;5058426;28;20201;-62
2022/07/04 07:47:02;;;;;;;3.28;1.50;;;;;;;21.28;100.00;94351.84;5057614;28;20251;-62
2022/07/04 07:49:47;;;;;;;3.83;1.55;;;;;;;20.86;100.00;94347.31;5049881;28;20581;-63
2022/07/04 07:52:31;;;;;;;2.30;1.60;;;;;;;21.15;100.00;94341.34;5054632;28;20205;-63
2022/07/04 07:55:15;;;;;;;3.50;1.40;;;;;;;21.17;100.00;94335.72;5051187;28;20272;-62
2022/07/04 07:58:01;;;;;;;2.45;1.73;;;;;;;21.01;100.00;94332.22;5052829;28;20275;-62
2022/07/04 08:00:45;;;;;;;2.03;1.73;;;;;;;20.92;100.00;94330.47;5050922;28;20225;-62
2022/07/04 08:06:33;;;;;;;1.25;1.17;;;;;;;21.38;100.00;94318.00;5059094;28;20199;-62
2022/07/04 08:09:17;;;;;;;2.28;1.10;;;;;;;21.65;100.00;94325.41;5050264;28;20277;-61
2022/07/04 08:12:03;;;;;;;3.67;1.17;;;;;;;21.67;100.00;94316.19;5031043;28;20348;-61
2022/07/04 08:14:48;;;;;;;1.20;1.10;;;;;;;22.58;100.00;94296.50;5059857;28;20628;-64
2022/07/04 08:17:32;;;;;;;2.35;1.33;;;;;;;23.40;100.00;94301.19;5049525;28;20256;-64
2022/07/04 08:20:16;;;;;;;2.35;1.13;;;;;;;23.77;100.00;94297.28;5058743;28;20225;-64
2022/07/04 08:23:00;;;;;;;3.70;1.35;;;;;;;23.49;100.00;94293.63;5052807;28;20240;-64
2022/07/04 08:25:44;;;;;;;3.45;1.20;;;;;;;22.80;79.15;94300.09;5056598;28;20227;-64
2022/07/04 08:28:29;;;;;;;3.08;1.05;;;;;;;22.71;82.54;94309.78;5056959;28;20579;-64
2022/07/04 08:31:13;;;;;;;1.25;1.15;;;;;;;22.23;82.58;94296.75;5053194;28;20240;-64
2022/07/04 08:33:57;;;;;;;2.20;1.20;;;;;;;22.72;78.01;94299.81;5057484;28;20274;-65
2022/07/04 08:36:41;;;;;;;4.03;1.48;;;;;;;23.09;82.25;94301.69;5058347;28;20692;-64
2022/07/04 08:39:25;;;;;;;0.80;0.80;;;;;;;24.49;75.79;94299.91;5055490;28;20212;-65
2022/07/04 08:42:16;;;;;;;0.98;0.90;;;;;;;25.42;66.91;94305.00;5050073;28;20628;-64
2022/07/04 08:45:01;;;;;;;2.25;1.10;;;;;;;25.27;67.10;94303.94;5053099;28;20194;-65
2022/07/04 08:47:51;;;;;;;0.80;0.80;;;;;;;26.12;62.02;94285.59;5049219;28;20251;-62
2022/07/04 08:50:49;;;;;;;1.63;0.80;;;;;;;26.51;59.82;94266.94;5049583;28;20209;-62
2022/07/04 08:53:37;;;;;;;3.45;0.95;;;;;;;26.62;61.82;94258.47;5046303;28;20267;-63
2022/07/04 08:59:25;;;;;;;0.95;0.80;;;;;;;27.02;59.81;94264.16;5053307;28;20221;-64
2022/07/04 09:02:09;;;;;;;1.83;0.88;;;;;;;28.06;55.51;94266.97;5052338;28;20235;-65
2022/07/04 09:04:54;;;;;;;1.13;0.80;;;;;;;27.37;56.78;94269.72;5060035;28;20348;-65
2022/07/04 09:07:38;;;;;;;1.55;0.90;;;;;;;27.90;55.07;94284.09;5050491;28;20687;-65
2022/07/04 09:10:22;;;;;;;2.05;1.00;;;;;;;28.22;51.81;94293.09;5052522;28;20281;-64
2022/07/04 09:13:08;;;;;;;1.10;1.00;;;;;;;28.39;49.65;94297.59;5051872;28;20213;-65
2022/07/04 09:15:52;;;;;;;3.05;1.05;;;;;;;28.61;48.73;94287.72;5060614;28;20205;-65
2022/07/04 09:18:37;;;;;;;0.82;0.82;;;;;;;29.16;49.79;94294.66;5054972;28;20229;-65
2022/07/04 09:21:41;;;;;;;3.20;0.90;;;;;;;29.91;46.58;94295.88;5048262;28;20654;-65
2022/07/04 09:24:44;;;;;;;2.50;0.75;;;;;;;30.46;43.92;94290.97;5055414;28;20273;-65
2022/07/04 09:27:33;;;;;;;1.98;1.05;;;;;;;30.24;44.40;94305.41;5057862;28;20231;-65
2022/07/04 09:30:23;;;;;;;3.25;0.90;;;;;;;29.06;47.04;94315.53;5051051;28;20205;-66
2022/07/04 09:33:08;;;;;;;1.00;0.80;;;;;;;27.93;48.03;94308.59;5053571;28;20617;-65
2022/07/04 09:35:52;;;;;;;0.85;0.80;;;;;;;27.49;51.14;94309.44;5056367;28;20569;-64
2022/07/04 09:38:36;;;;;;;2.67;1.00;;;;;;;27.89;49.65;94314.31;5022105;28;20770;-65
2022/07/04 09:41:29;;;;;;;2.00;0.80;;;;;;;27.32;51.00;94302.00;5053062;28;20247;-65
2022/07/04 09:44:14;;;;;;;3.20;1.20;;;;;;;27.78;50.05;94304.78;5053614;28;20202;-65
2022/07/04 09:46:58;;;;;;;0.93;0.93;;;;;;;27.20;50.54;94301.84;5051065;28;20251;-64
2022/07/04 09:50:00;;;;;;;1.45;0.80;;;;;;;27.05;51.72;94303.03;5058102;28;20241;-65
2022/07/04 09:53:01;;;;;;;1.73;0.90;;;;;;;27.47;51.55;94295.00;5056017;28;20197;-65
2022/07/04 09:55:46;;;;;;;1.35;1.15;;;;;;;27.57;50.79;94300.94;5055536;28;20741;-65
2022/07/04 09:58:30;;;;;;;1.48;0.90;;;;;;;26.86;52.87;94293.38;5051892;28;20559;-65
2022/07/04 10:01:19;;;;;;;2.45;0.90;;;;;;;27.56;50.59;94296.63;5049246;28;20636;-65
2022/07/04 10:04:03;;;;;;;3.42;1.48;;;;;;;26.76;52.74;94305.44;5053305;28;20249;-65
2022/07/04 10:06:48;;;;;;;2.00;1.30;;;;;;;27.27;52.15;94312.00;5051732;28;20193;-65
2022/07/04 10:09:32;;;;;;;2.25;1.23;;;;;;;27.07;53.30;94305.94;5050664;28;20263;-64
2022/07/04 10:12:26;;;;;;;1.40;1.23;;;;;;;28.10;51.26;94316.00;5052922;28;20232;-65
2022/07/04 10:15:10;;;;;;;1.52;1.17;;;;;;;27.11;53.61;94309.59;5063217;28;20307;-65
2022/07/04 10:17:54;;;;;;;1.60;0.90;;;;;;;27.66;53.38;94321.91;5057583;28;20252;-66
2022/07/04 10:20:39;;;;;;;1.70;1.05;;;;;;;29.26;48.56;94320.72;5053939;28;20237;-67
2022/07/04 10:23:26;;;;;;;2.45;1.33;;;;;;;28.76;49.22;94312.41;5055370;28;20205;-66
2022/07/04 10:26:11;;;;;;;3.33;1.40;;;;;;;28.19;50.25;94311.81;5048383;28;20221;-66
2022/07/04 10:28:56;;;;;;;6.90;1.58;;;;;;;28.93;48.75;94311.84;5045055;28;20277;-67
2022/07/04 10:31:40;;;;;;;1.45;1.00;;;;;;;28.49;48.06;94309.25;5052683;28;20197;-67
2022/07/04 10:34:26;;;;;;;1.30;1.05;;;;;;;28.22;48.45;94306.78;5045553;28;20213;-67
2022/07/04 10:37:10;;;;;;;2.88;1.27;;;;;;;30.27;44.71;94314.78;5056222;28;20202;-67
2022/07/04 10:39:54;;;;;;;2.90;0.80;;;;;;;29.22;47.38;94309.16;5050148;28;20571;-67
2022/07/04 10:42:38;;;;;;;2.67;1.10;;;;;;;31.17;41.58;94311.31;5033579;28;20229;-67
2022/07/04 10:45:32;;;;;;;2.58;1.02;;;;;;;29.09;43.74;94307.59;5048429;28;20574;-67
2022/07/04 10:48:20;;;;;;;1.52;1.08;;;;;;;28.40;45.58;94301.19;5052651;28;20193;-67
2022/07/04 10:51:06;;;;;;;2.45;1.10;;;;;;;29.58;43.97;94308.69;5050130;28;20225;-66
2022/07/04 10:53:59;;;;;;;3.60;1.00;;;;;;;30.65;43.40;94309.13;5055646;28;20314;-67
2022/07/04 10:56:49;;;;;;;2.42;1.10;;;;;;;31.42;40.84;94306.22;5050298;28;20296;-67
2022/07/04 10:59:34;;;;;;;2.03;1.00;;;;;;;31.77;40.52;94309.09;5048535;28;20293;-66
2022/07/04 11:02:18;;;;;;;0.98;0.70;;;;;;;32.19;38.16;94306.06;5042550;28;20222;-66
2022/07/04 11:05:09;;;;;;;1.90;1.10;;;;;;;31.05;40.19;94293.25;5048239;28;20206;-65
2022/07/04 11:08:00;;;;;;;0.88;0.77;;;;;;;30.82;40.14;94292.50;5047722;28;20206;-65
2022/07/04 11:10:44;;;;;;;1.67;0.85;;;;;;;31.89;38.80;94292.38;5045192;28;20198;-66
2022/07/04 11:13:28;;;;;;;1.58;0.80;;;;;;;33.04;35.93;94285.22;5045058;28;20205;-66
2022/07/04 11:16:12;;;;;;;1.77;0.93;;;;;;;32.78;36.06;94291.22;5047878;28;20217;-66
2022/07/04 11:18:56;;;;;;;1.40;0.90;;;;;;;31.46;38.15;94285.97;5050902;28;20209;-66
2022/07/04 11:21:40;;;;;;;1.17;1.00;;;;;;;31.84;37.52;94293.13;5045799;28;20285;-66
2022/07/04 11:24:25;;;;;;;1.95;0.93;;;;;;;33.25;35.40;94283.63;5048295;28;20356;-66
2022/07/04 11:27:09;;;;;;;1.05;0.70;;;;;;;32.97;35.23;94283.81;5052427;28;20225;-67
2022/07/04 11:29:55;;;;;;;1.48;0.90;;;;;;;32.37;36.03;94284.94;5047866;28;20213;-67
2022/07/04 11:32:39;;;;;;;3.10;1.10;;;;;;;34.17;33.46;94282.66;5048220;28;20192;-66
2022/07/04 11:35:23;;;;;;;1.13;0.90;;;;;;;33.49;35.57;94281.94;5033115;28;20196;-69
2022/07/04 11:38:06;;;;;;;3.45;0.88;;;;;;;33.69;34.91;94275.91;5031758;28;20683;-67
2022/07/04 11:47:18;;;;;;;2.05;1.00;;;;;;;34.04;33.46;94274.06;5051136;28;20356;-67
2022/07/04 11:50:06;;;;;;;1.40;0.90;;;;;;;34.27;33.27;94276.72;5049438;28;20241;-67
2022/07/04 11:52:53;;;;;;;2.97;0.98;;;;;;;34.36;33.53;94275.16;5050121;28;20253;-69
2022/07/04 11:55:37;;;;;;;1.52;0.98;;;;;;;33.95;33.32;94272.72;5048614;28;20197;-67
2022/07/04 11:58:22;;;;;;;1.23;0.85;;;;;;;35.13;32.34;94260.16;5043240;28;20714;-67
2022/07/04 12:01:08;;;;;;;3.05;1.05;;;;;;;34.38;32.97;94269.31;5047692;28;20583;-70
2022/07/04 12:03:52;;;;;;;3.30;1.08;;;;;;;35.17;32.33;94276.84;5050872;28;20213;-68
2022/07/04 12:06:36;;;;;;;2.30;1.10;;;;;;;34.38;32.58;94275.13;5045083;28;20197;-69
2022/07/04 12:09:20;;;;;;;2.63;0.93;;;;;;;35.24;32.75;94269.47;5039379;28;20682;-68
2022/07/04 12:12:05;;;;;;;2.67;0.90;;;;;;;36.39;30.65;94258.53;5047068;28;20311;-67
2022/07/04 12:14:57;;;;;;;1.33;1.13;;;;;;;35.62;32.08;94254.19;5045015;28;20228;-68
2022/07/04 12:17:41;;;;;;;2.22;1.00;;;;;;;36.38;30.50;94245.41;5048151;28;20197;-68
2022/07/04 12:20:26;;;;;;;1.10;1.00;;;;;;;36.54;30.14;94249.44;5050300;28;20230;-68
2022/07/04 12:23:10;;;;;;;1.90;0.90;;;;;;;35.92;30.53;94231.78;5048552;28;20208;-69
2022/07/04 12:25:55;;;;;;;1.50;0.95;;;;;;;34.48;32.79;94237.13;5046837;28;20733;-69
2022/07/04 12:28:41;;;;;;;2.53;1.00;;;;;;;35.00;32.44;94235.59;5050551;28;20327;-69
2022/07/04 12:31:38;;;;;;;2.92;1.20;;;;;;;33.78;33.44;94230.75;5037019;28;20201;-68
2022/07/04 12:34:24;;;;;;;2.78;0.80;;;;;;;35.13;31.76;94224.47;5046914;28;20230;-68
2022/07/04 12:37:09;;;;;;;2.20;0.98;;;;;;;34.95;31.66;94227.69;5048574;28;20248;-68
2022/07/04 12:39:54;;;;;;;2.38;1.02;;;;;;;36.09;30.40;94221.22;5049711;28;20599;-69
2022/07/04 12:42:39;;;;;;;1.27;0.85;;;;;;;36.44;29.64;94213.16;5049096;28;20198;-68
2022/07/04 12:45:23;;;;;;;0.90;0.75;;;;;;;36.18;31.07;94213.72;5049084;28;20194;-68
2022/07/04 12:48:21;;;;;;;1.95;1.13;;;;;;;36.29;30.13;94209.13;5050383;28;20252;-68
2022/07/04 12:51:19;;;;;;;1.38;0.90;;;;;;;35.13;31.38;94206.97;5034614;28;20276;-69
2022/07/04 12:54:08;;;;;;;1.73;1.00;;;;;;;36.47;31.10;94205.06;5048136;28;20248;-70
2022/07/04 12:57:23;;;;;;;1.67;0.80;;;;;;;36.63;28.79;94207.59;5045179;28;20722;-72
2022/07/04 13:00:08;;;;;;;1.23;0.88;;;;;;;35.93;28.96;94198.19;5046189;28;20201;-72
2022/07/04 13:02:53;;;;;;;2.88;0.90;;;;;;;38.12;27.32;94198.63;5024815;28;20225;-71
2022/07/04 13:05:38;;;;;;;1.67;0.77;;;;;;;37.42;27.71;94199.09;5044677;28;20795;-74
2022/07/04 13:08:22;;;;;;;3.65;1.30;;;;;;;38.57;25.75;94189.25;5039480;28;20200;-72
2022/07/04 13:14:09;;;;;;;3.95;0.80;;;;;;;39.67;24.39;94198.75;5050027;28;20197;-72